createdAt,value
2022-12-01T00:00:22.798Z,92910.97
2022-12-01T00:05:26.581Z,92911.75
2022-12-01T00:10:29.811Z,92905.50
2022-12-01T00:15:37.001Z,92916.16
2022-12-01T00:20:40.805Z,92906.97
2022-12-01T00:25:45.090Z,92904.97
2022-12-01T00:30:48.347Z,92920.53
2022-12-01T00:35:59.700Z,92918.06
2022-12-01T00:41:03.906Z,92907.63
2022-12-01T00:46:07.716Z,92927.97
2022-12-01T00:51:11.356Z,92920.63
2022-12-01T00:56:15.211Z,92939.84
2022-12-01T01:01:18.671Z,92943.97
2022-12-01T01:06:22.541Z,92936.94
2022-12-01T01:11:26.707Z,92941.09
2022-12-01T01:16:30.493Z,92935.25
2022-12-01T01:21:34.235Z,92934.66
2022-12-01T01:26:38.334Z,92936.94
2022-12-01T01:31:41.884Z,92947.38
2022-12-01T01:36:45.374Z,92947.03
2022-12-01T01:41:49.634Z,92924.94
2022-12-01T01:46:52.949Z,92947.50
2022-12-01T01:51:57.940Z,92953.16
2022-12-01T01:57:02.634Z,92953.63
2022-12-01T02:02:08.895Z,92951.00
2022-12-01T02:07:16.359Z,92940.56
2022-12-01T02:12:43.953Z,92956.53
2022-12-01T02:17:53.014Z,92967.16
2022-12-01T02:23:12.024Z,92961.97
2022-12-01T02:28:42.059Z,92968.84
2022-12-01T02:34:18.434Z,92978.34
2022-12-01T02:39:58.518Z,92975.31
2022-12-01T02:45:06.434Z,92972.19
2022-12-01T02:50:12.423Z,92956.81
2022-12-01T02:55:15.980Z,92963.25
2022-12-01T03:00:19.478Z,92970.34
2022-12-01T03:05:36.485Z,92959.50
2022-12-01T03:10:52.981Z,92980.81
2022-12-01T03:16:07.530Z,92971.94
2022-12-01T03:21:16.073Z,92981.84
2022-12-01T03:26:22.954Z,92973.03
2022-12-01T03:31:36.622Z,92978.78
2022-12-01T03:36:52.616Z,92979.22
2022-12-01T03:42:18.383Z,92983.06
2022-12-01T03:47:29.650Z,92990.16
2022-12-01T03:53:04.939Z,92977.28
2022-12-01T03:58:34.669Z,93000.09
2022-12-01T04:03:37.834Z,92998.75
2022-12-01T04:08:41.656Z,93003.75
2022-12-01T04:13:44.850Z,93015.16
2022-12-01T04:18:48.417Z,93011.69
2022-12-01T04:24:00.382Z,93012.47
2022-12-01T04:29:06.936Z,93019.78
2022-12-01T04:34:11.267Z,93018.66
2022-12-01T04:39:14.949Z,93019.00
2022-12-01T04:44:18.341Z,93027.63
2022-12-01T04:49:23.152Z,93033.97
2022-12-01T04:54:26.791Z,93030.13
2022-12-01T04:59:30.511Z,93059.16
2022-12-01T05:04:34.576Z,93057.06
2022-12-01T05:09:39.172Z,93067.69
2022-12-01T05:14:42.483Z,93081.28
2022-12-01T05:20:04.279Z,93082.09
2022-12-01T05:25:07.882Z,93080.31
2022-12-01T05:30:11.916Z,93099.38
2022-12-01T05:35:15.237Z,93093.53
2022-12-01T05:40:18.499Z,93100.56
2022-12-01T05:45:22.187Z,93105.97
2022-12-01T05:50:27.385Z,93122.78
2022-12-01T05:55:34.666Z,93123.53
2022-12-01T06:00:45.312Z,93121.47
2022-12-01T06:05:49.292Z,93133.34
2022-12-01T06:10:53.538Z,93141.53
2022-12-01T06:15:58.885Z,93150.19
2022-12-01T06:21:03.462Z,93151.50
2022-12-01T06:26:06.696Z,93150.69
2022-12-01T06:31:10.522Z,93158.09
2022-12-01T06:36:13.716Z,93158.09
2022-12-01T06:41:16.985Z,93155.72
2022-12-01T06:46:20.875Z,93152.94
2022-12-01T06:51:24.381Z,93171.38
2022-12-01T06:56:28.631Z,93173.13
2022-12-01T07:01:32.006Z,93171.59
2022-12-01T07:06:35.379Z,93170.75
2022-12-01T07:11:39.203Z,93167.69
2022-12-01T07:16:42.770Z,93166.94
2022-12-01T07:21:46.698Z,93162.63
2022-12-01T07:26:50.103Z,93161.28
2022-12-01T07:31:53.672Z,93176.16
2022-12-01T07:36:57.298Z,93188.94
2022-12-01T07:42:01.081Z,93195.09
2022-12-01T07:47:04.269Z,93187.09
2022-12-01T07:52:07.837Z,93195.47
2022-12-01T07:57:14.527Z,93204.25
2022-12-01T08:02:18.410Z,93196.06
2022-12-01T08:07:23.435Z,93203.53
2022-12-01T08:12:29.684Z,93212.56
2022-12-01T08:17:32.862Z,93220.78
2022-12-01T08:22:36.432Z,93231.41
2022-12-01T08:27:40.038Z,93236.63
2022-12-01T08:32:43.912Z,93231.28
2022-12-01T08:37:47.593Z,93242.16
2022-12-01T08:42:53.782Z,93238.53
2022-12-01T08:47:59.144Z,93241.66
2022-12-01T08:53:02.237Z,93252.09
2022-12-01T08:58:05.561Z,93246.75
2022-12-01T09:03:08.801Z,93248.75
2022-12-01T09:08:34.610Z,93258.53
2022-12-01T09:13:39.980Z,93262.66
2022-12-01T09:18:45.248Z,93262.22
2022-12-01T09:23:49.402Z,93257.47
2022-12-01T09:28:57.896Z,93266.97
2022-12-01T09:34:04.397Z,93265.38
2022-12-01T09:39:09.692Z,93272.25
2022-12-01T09:44:44.954Z,93271.88
2022-12-01T09:50:22.247Z,93279.25
2022-12-01T09:55:27.109Z,93273.50
2022-12-01T10:00:34.957Z,93282.88
2022-12-01T10:06:18.526Z,93273.22
2022-12-01T10:11:36.064Z,93271.53
2022-12-01T10:17:06.691Z,93283.56
2022-12-01T10:22:31.947Z,93266.31
2022-12-01T10:27:57.403Z,93263.34
2022-12-01T10:33:10.830Z,93270.09
2022-12-01T10:38:26.797Z,93278.56
2022-12-01T10:43:58.129Z,93282.31
2022-12-01T10:49:13.827Z,93286.34
2022-12-01T10:54:18.218Z,93276.50
2022-12-01T10:59:39.534Z,93276.06
2022-12-01T11:05:07.987Z,93284.63
2022-12-01T11:10:22.347Z,93274.00
2022-12-01T11:15:31.517Z,93273.03
2022-12-01T11:20:39.843Z,93272.84
2022-12-01T11:25:59.862Z,93272.94
2022-12-01T11:31:09.644Z,93268.09
2022-12-01T11:36:23.864Z,93271.78
2022-12-01T11:41:37.061Z,93271.19
2022-12-01T11:46:46.505Z,93267.78
2022-12-01T11:52:17.482Z,93281.28
2022-12-01T11:57:33.857Z,93278.00
2022-12-01T12:02:50.050Z,93270.59
2022-12-01T12:08:14.630Z,93273.47
2022-12-01T12:13:43.862Z,93292.63
2022-12-01T12:19:06.335Z,93280.22
2022-12-01T12:24:28.272Z,93281.81
2022-12-01T12:29:40.156Z,93280.09
2022-12-01T12:35:20.709Z,93274.91
2022-12-01T12:40:41.271Z,93292.28
2022-12-01T12:46:07.807Z,93295.69
2022-12-01T12:51:21.063Z,93304.31
2022-12-01T12:56:26.894Z,93319.09
2022-12-01T13:01:37.315Z,93329.63
2022-12-01T13:06:53.322Z,93322.66
2022-12-01T13:12:05.009Z,93316.56
2022-12-01T13:17:23.686Z,93326.34
2022-12-01T13:22:46.598Z,93320.72
2022-12-01T13:27:52.466Z,93330.59
2022-12-01T13:33:04.861Z,93335.03
2022-12-01T13:38:29.801Z,93334.19
2022-12-01T13:43:33.114Z,93344.06
2022-12-01T13:48:42.728Z,93349.41
2022-12-01T13:54:01.776Z,93349.19
2022-12-01T13:59:44.052Z,93354.03
2022-12-01T14:04:48.143Z,93360.03
2022-12-01T14:09:58.332Z,93369.47
2022-12-01T14:15:05.950Z,93371.50
2022-12-01T14:20:16.839Z,93377.03
2022-12-01T14:25:20.681Z,93390.31
2022-12-01T14:30:42.576Z,93388.38
2022-12-01T14:35:46.120Z,93393.47
2022-12-01T14:40:50.609Z,93396.97
2022-12-01T14:46:06.839Z,93403.22
2022-12-01T14:51:20.425Z,93410.19
2022-12-01T14:56:25.669Z,93420.25
2022-12-01T15:01:35.935Z,93422.53
2022-12-01T15:06:40.995Z,93422.88
2022-12-01T15:11:56.451Z,93417.38
2022-12-01T15:17:00.095Z,93418.09
2022-12-01T15:22:07.830Z,93427.81
2022-12-01T15:27:30.398Z,93430.00
2022-12-01T15:32:39.881Z,93429.81
2022-12-01T15:37:45.309Z,93431.09
2022-12-01T15:43:19.775Z,93435.78
2022-12-01T15:48:32.428Z,93439.75
2022-12-01T15:53:39.930Z,93438.19
2022-12-01T15:58:47.535Z,93443.22
2022-12-01T16:04:25.772Z,93450.00
2022-12-01T16:09:35.952Z,93455.91
2022-12-01T16:15:01.341Z,93466.28
2022-12-01T16:20:23.406Z,93479.16
2022-12-01T16:25:38.142Z,93479.81
2022-12-01T16:30:42.098Z,93493.41
2022-12-01T16:35:45.843Z,93491.03
2022-12-01T16:40:53.361Z,93503.97
2022-12-01T16:46:03.570Z,93509.94
2022-12-01T16:51:08.137Z,93508.38
2022-12-01T16:56:15.521Z,93517.94
2022-12-01T17:01:19.296Z,93525.91
2022-12-01T17:06:22.551Z,93524.06
2022-12-01T17:11:26.509Z,93529.25
2022-12-01T17:16:30.128Z,93531.75
2022-12-01T17:21:33.812Z,93541.88
2022-12-01T17:26:37.315Z,93537.72
2022-12-01T17:31:41.239Z,93546.28
2022-12-01T17:36:44.896Z,93552.91
2022-12-01T17:42:13.828Z,93553.63
2022-12-01T17:47:17.899Z,93563.28
2022-12-01T17:52:26.728Z,93565.97
2022-12-01T17:57:31.867Z,93576.53
2022-12-01T18:02:36.089Z,93591.00
2022-12-01T18:07:39.760Z,93589.97
2022-12-01T18:12:43.946Z,93587.63
2022-12-01T18:17:47.071Z,93586.47
2022-12-01T18:22:51.281Z,93584.06
2022-12-01T18:27:58.904Z,93592.28
2022-12-01T18:33:03.065Z,93587.63
2022-12-01T18:38:06.475Z,93598.31
2022-12-01T18:43:10.360Z,93597.00
2022-12-01T18:48:13.451Z,93598.66
2022-12-01T18:53:17.531Z,93608.38
2022-12-01T18:58:21.478Z,93606.41
2022-12-01T19:03:24.760Z,93604.19
2022-12-01T19:08:28.381Z,93606.22
2022-12-01T19:13:33.427Z,93610.16
2022-12-01T19:18:37.548Z,93620.78
2022-12-01T19:23:41.835Z,93616.34
2022-12-01T19:28:46.437Z,93629.34
2022-12-01T19:33:50.569Z,93630.09
2022-12-01T19:38:57.651Z,93637.78
2022-12-01T19:44:01.466Z,93645.03
2022-12-01T19:49:06.997Z,93646.69
2022-12-01T19:54:19.047Z,93657.97
2022-12-01T19:59:22.446Z,93654.97
2022-12-01T20:04:26.212Z,93662.63
2022-12-01T20:09:29.421Z,93652.56
2022-12-01T20:14:33.073Z,93657.72
2022-12-01T20:19:36.406Z,93658.13
2022-12-01T20:24:42.401Z,93664.25
2022-12-01T20:29:45.661Z,93663.78
2022-12-01T20:34:49.437Z,93664.63
2022-12-01T20:39:52.831Z,93663.25
2022-12-01T20:44:56.906Z,93675.44
2022-12-01T20:50:00.131Z,93684.59
2022-12-01T20:55:04.167Z,93681.13
2022-12-01T21:00:08.641Z,93690.41
2022-12-01T21:05:12.584Z,93697.94
2022-12-01T21:10:19.947Z,93691.44
2022-12-01T21:15:30.042Z,93692.22
2022-12-01T21:20:39.801Z,93704.72
2022-12-01T21:25:44.160Z,93702.53
2022-12-01T21:30:55.771Z,93710.69
2022-12-01T21:36:01.210Z,93700.78
2022-12-01T21:41:29.848Z,93700.78
2022-12-01T21:46:33.126Z,93709.28
2022-12-01T21:51:38.081Z,93707.63
2022-12-01T21:56:41.808Z,93709.38
2022-12-01T22:01:44.943Z,93714.19
2022-12-01T22:06:51.725Z,93710.78
2022-12-01T22:11:59.978Z,93714.06
2022-12-01T22:17:14.777Z,93706.97
2022-12-01T22:22:36.789Z,93722.84
2022-12-01T22:27:40.541Z,93724.34
2022-12-01T22:33:00.858Z,93719.19
2022-12-01T22:38:06.946Z,93718.25
2022-12-01T22:43:16.369Z,93719.22
2022-12-01T22:48:22.642Z,93723.69
2022-12-01T22:53:32.265Z,93723.88
2022-12-01T22:58:41.383Z,93716.38
2022-12-01T23:03:45.199Z,93711.91
2022-12-01T23:08:48.367Z,93712.97
2022-12-01T23:13:52.074Z,93715.88
2022-12-01T23:18:55.624Z,93716.13
2022-12-01T23:23:59.322Z,93706.22
2022-12-01T23:29:02.983Z,93715.66
2022-12-01T23:34:15.654Z,93705.03
2022-12-01T23:39:23.661Z,93688.50
2022-12-01T23:44:42.951Z,93702.88
2022-12-01T23:49:47.773Z,93711.28
2022-12-01T23:54:51.316Z,93706.81
